Aviation Digital Data Service (ADDS)

Output produced by METARs form (0840 UTC 24 September 2017)
found at http://aviationweather.gov/adds/metars/
 
KFNT 240525Z 2406/2506 16004KT P6SM SKC